createdAt,value
2023-02-06T00:00:56.374Z,88.75
2023-02-06T00:03:25.280Z,88.93
2023-02-06T00:05:57.829Z,88.46
2023-02-06T00:08:25.596Z,88.50
2023-02-06T00:10:54.640Z,88.41
2023-02-06T00:13:23.118Z,88.87
2023-02-06T00:15:50.860Z,88.19
2023-02-06T00:18:18.489Z,88.65
2023-02-06T00:20:47.744Z,88.41
2023-02-06T00:23:15.564Z,88.28
2023-02-06T00:25:43.467Z,88.34
2023-02-06T00:28:11.095Z,87.66
2023-02-06T00:30:39.467Z,88.00
2023-02-06T00:33:07.404Z,88.14
2023-02-06T00:35:36.219Z,87.55
2023-02-06T00:38:06.676Z,88.06
2023-02-06T00:40:34.609Z,88.13
2023-02-06T00:43:02.204Z,87.81
2023-02-06T00:45:30.125Z,87.67
2023-02-06T00:47:57.870Z,87.59
2023-02-06T00:50:26.097Z,87.78
2023-02-06T00:52:53.853Z,87.53
2023-02-06T00:55:23.877Z,88.40
2023-02-06T00:57:51.440Z,88.30
2023-02-06T01:00:19.941Z,88.50
2023-02-06T01:02:47.722Z,87.84
2023-02-06T01:05:15.981Z,88.13
2023-02-06T01:07:43.586Z,88.04
2023-02-06T01:10:13.258Z,87.52
2023-02-06T01:12:43.527Z,87.43
2023-02-06T01:15:13.535Z,88.14
2023-02-06T01:17:42.626Z,87.36
2023-02-06T01:20:14.439Z,87.32
2023-02-06T01:22:42.996Z,87.25
2023-02-06T01:25:12.879Z,87.45
2023-02-06T01:27:42.341Z,87.96
2023-02-06T01:30:11.577Z,87.46
2023-02-06T01:32:41.208Z,87.31
2023-02-06T01:35:10.869Z,87.63
2023-02-06T01:37:40.052Z,87.31
2023-02-06T01:40:10.484Z,87.59
2023-02-06T01:42:39.253Z,87.02
2023-02-06T01:45:38.889Z,87.15
2023-02-06T01:48:11.404Z,87.60
2023-02-06T01:51:06.634Z,87.87
2023-02-06T01:53:35.980Z,86.91
2023-02-06T01:56:07.783Z,87.61
2023-02-06T01:58:39.379Z,87.30
2023-02-06T02:01:09.462Z,86.77
2023-02-06T02:03:40.558Z,87.04
2023-02-06T02:06:11.566Z,87.53
2023-02-06T02:08:41.807Z,87.14
2023-02-06T02:11:12.325Z,87.73
2023-02-06T02:13:40.427Z,87.41
2023-02-06T02:16:16.429Z,88.15
2023-02-06T02:18:58.868Z,87.97
2023-02-06T02:21:54.153Z,87.86
2023-02-06T02:24:31.890Z,88.33
2023-02-06T02:27:41.238Z,87.30
2023-02-06T02:30:35.996Z,87.57
2023-02-06T02:33:54.491Z,87.15
2023-02-06T02:36:29.309Z,87.50
2023-02-06T02:39:05.031Z,87.49
2023-02-06T02:41:43.666Z,87.81
2023-02-06T02:44:17.529Z,87.78
2023-02-06T02:46:49.344Z,87.38
2023-02-06T02:49:20.945Z,87.92
2023-02-06T02:51:52.640Z,87.13
2023-02-06T02:54:20.864Z,87.80
2023-02-06T02:56:48.690Z,87.55
2023-02-06T02:59:24.034Z,88.00
2023-02-06T03:01:58.186Z,87.55
2023-02-06T03:04:30.917Z,87.38
2023-02-06T03:07:09.504Z,87.86
2023-02-06T03:09:51.125Z,87.56
2023-02-06T03:12:24.677Z,87.85
2023-02-06T03:14:58.106Z,87.92
2023-02-06T03:17:34.227Z,87.48
2023-02-06T03:20:04.004Z,87.00
2023-02-06T03:22:35.559Z,87.19
2023-02-06T03:25:05.621Z,87.21
2023-02-06T03:27:35.293Z,87.83
2023-02-06T03:30:05.246Z,87.87
2023-02-06T03:32:38.618Z,87.29
2023-02-06T03:35:11.192Z,87.24
2023-02-06T03:37:41.279Z,87.00
2023-02-06T03:40:10.109Z,86.92
2023-02-06T03:42:41.886Z,87.23
2023-02-06T03:45:16.859Z,86.91
2023-02-06T03:47:47.648Z,87.22
2023-02-06T03:50:16.328Z,86.43
2023-02-06T03:52:50.071Z,86.73
2023-02-06T03:55:21.870Z,86.48
2023-02-06T03:57:53.082Z,86.50
2023-02-06T04:00:21.840Z,86.71
2023-02-06T04:02:54.712Z,86.92
2023-02-06T04:05:22.409Z,86.83
2023-02-06T04:07:53.132Z,86.99
2023-02-06T04:10:21.168Z,86.79
2023-02-06T04:12:49.030Z,86.50
2023-02-06T04:15:16.885Z,85.85
2023-02-06T04:17:58.775Z,85.74
2023-02-06T04:20:28.037Z,86.07
2023-02-06T04:22:57.686Z,85.77
2023-02-06T04:25:25.794Z,86.04
2023-02-06T04:27:53.878Z,86.24
2023-02-06T04:30:22.261Z,86.50
2023-02-06T04:32:50.279Z,86.62
2023-02-06T04:35:18.819Z,86.13
2023-02-06T04:37:46.450Z,85.47
2023-02-06T04:40:15.716Z,86.05
2023-02-06T04:42:43.295Z,85.03
2023-02-06T04:45:11.560Z,85.44
2023-02-06T04:47:39.497Z,85.60
2023-02-06T04:50:08.077Z,85.76
2023-02-06T04:52:35.688Z,86.15
2023-02-06T04:55:03.566Z,85.73
2023-02-06T04:57:32.646Z,84.86
2023-02-06T05:00:00.567Z,85.50
2023-02-06T05:02:28.296Z,85.35
2023-02-06T05:04:56.373Z,84.32
2023-02-06T05:07:24.927Z,84.83
2023-02-06T05:09:52.770Z,84.49
2023-02-06T05:12:20.342Z,84.83
2023-02-06T05:14:49.801Z,84.85
2023-02-06T05:17:17.722Z,84.51
2023-02-06T05:19:45.530Z,84.97
2023-02-06T05:22:13.165Z,84.69
2023-02-06T05:24:40.768Z,84.40
2023-02-06T05:27:08.395Z,84.89
2023-02-06T05:29:35.989Z,85.23
2023-02-06T05:32:05.174Z,85.73
2023-02-06T05:34:33.072Z,85.34
2023-02-06T05:37:00.758Z,85.57
2023-02-06T05:39:28.734Z,84.56
2023-02-06T05:41:56.344Z,85.15
2023-02-06T05:44:24.895Z,85.05
2023-02-06T05:46:53.131Z,84.44
2023-02-06T05:49:22.080Z,85.74
2023-02-06T05:51:50.022Z,85.42
2023-02-06T05:54:18.431Z,85.01
2023-02-06T05:56:46.214Z,85.77
2023-02-06T05:59:13.822Z,85.75
2023-02-06T06:01:41.497Z,85.21
2023-02-06T06:04:09.485Z,86.07
2023-02-06T06:06:39.110Z,84.91
2023-02-06T06:09:06.860Z,84.68
2023-02-06T06:11:35.423Z,85.73
2023-02-06T06:14:03.143Z,84.99
2023-02-06T06:16:32.161Z,84.83
2023-02-06T06:18:59.773Z,86.06
2023-02-06T06:21:27.845Z,85.77
2023-02-06T06:23:57.162Z,85.80
2023-02-06T06:26:25.281Z,85.44
2023-02-06T06:28:52.948Z,85.96
2023-02-06T06:31:20.984Z,85.48
2023-02-06T06:33:48.643Z,85.27
2023-02-06T06:36:16.638Z,85.63
2023-02-06T06:38:44.271Z,85.61
2023-02-06T06:41:13.831Z,85.66
2023-02-06T06:43:42.228Z,86.20
2023-02-06T06:46:10.366Z,86.30
2023-02-06T06:48:38.645Z,85.71
2023-02-06T06:51:06.646Z,86.02
2023-02-06T06:53:34.562Z,85.87
2023-02-06T06:56:06.592Z,85.65
2023-02-06T06:58:35.993Z,86.29
2023-02-06T07:01:05.256Z,85.99
2023-02-06T07:03:33.027Z,86.02
2023-02-06T07:06:00.997Z,85.88
2023-02-06T07:08:29.933Z,86.78
2023-02-06T07:10:58.582Z,86.64
2023-02-06T07:13:26.248Z,86.41
2023-02-06T07:15:55.579Z,86.15
2023-02-06T07:18:23.607Z,85.93
2023-02-06T07:20:51.451Z,86.55
2023-02-06T07:23:19.489Z,86.62
2023-02-06T07:25:47.100Z,86.55
2023-02-06T07:28:14.728Z,85.95
2023-02-06T07:30:42.387Z,86.43
2023-02-06T07:33:11.584Z,85.77
2023-02-06T07:35:40.276Z,85.64
2023-02-06T07:38:08.863Z,85.60
2023-02-06T07:40:45.039Z,86.21
2023-02-06T07:43:13.854Z,85.25
2023-02-06T07:45:41.548Z,85.78
2023-02-06T07:48:11.544Z,84.87
2023-02-06T07:50:39.435Z,85.71
2023-02-06T07:53:07.818Z,85.29
2023-02-06T07:55:37.805Z,85.26
2023-02-06T07:58:05.969Z,85.44
2023-02-06T08:00:33.568Z,84.52
2023-02-06T08:03:01.564Z,85.28
2023-02-06T08:05:31.189Z,86.19
2023-02-06T08:07:59.768Z,83.89
2023-02-06T08:10:28.394Z,84.35
2023-02-06T08:12:56.505Z,82.61
2023-02-06T08:15:25.164Z,81.16
2023-02-06T08:17:52.851Z,82.42
2023-02-06T08:20:20.446Z,79.00
2023-02-06T08:22:49.933Z,77.24
2023-02-06T08:25:17.565Z,76.19
2023-02-06T08:27:45.366Z,77.09
2023-02-06T08:30:14.294Z,77.66
2023-02-06T08:32:42.237Z,78.22
2023-02-06T08:35:09.873Z,76.65
2023-02-06T08:37:37.462Z,76.70
2023-02-06T08:40:07.542Z,76.04
2023-02-06T08:42:36.115Z,73.65
2023-02-06T08:45:03.844Z,72.59
2023-02-06T08:47:31.990Z,71.27
2023-02-06T08:50:01.579Z,72.00
2023-02-06T08:52:31.153Z,71.38
2023-02-06T08:54:58.833Z,71.36
2023-02-06T08:57:27.776Z,71.37
2023-02-06T08:59:55.684Z,70.23
2023-02-06T09:02:24.052Z,69.21
2023-02-06T09:04:51.849Z,69.21
2023-02-06T09:07:19.710Z,67.57
2023-02-06T09:09:47.290Z,64.13
2023-02-06T09:12:16.227Z,62.49
2023-02-06T09:14:45.452Z,58.51
2023-02-06T09:17:13.598Z,58.17
2023-02-06T09:19:41.443Z,55.99
2023-02-06T09:22:09.015Z,56.34
2023-02-06T09:24:37.146Z,54.24
2023-02-06T09:27:04.891Z,54.12
2023-02-06T09:29:33.133Z,54.69
2023-02-06T09:32:02.372Z,53.64
2023-02-06T09:34:30.255Z,53.19
2023-02-06T09:36:58.056Z,54.29
2023-02-06T09:39:26.207Z,55.82
2023-02-06T09:41:55.811Z,57.46
2023-02-06T09:44:28.726Z,58.80
2023-02-06T09:47:02.190Z,60.25
2023-02-06T09:49:37.988Z,57.09
2023-02-06T09:52:23.460Z,55.74
2023-02-06T09:55:02.060Z,52.25
2023-02-06T09:57:39.018Z,50.49
2023-02-06T10:00:17.247Z,48.81
2023-02-06T10:03:17.707Z,48.74
2023-02-06T10:05:52.649Z,48.35
2023-02-06T10:08:25.438Z,47.20
2023-02-06T10:10:56.031Z,48.92
2023-02-06T10:13:31.285Z,51.05
2023-02-06T10:16:20.506Z,49.47
2023-02-06T10:18:53.248Z,48.47
2023-02-06T10:21:29.537Z,47.95
2023-02-06T10:24:01.818Z,46.11
2023-02-06T10:26:30.129Z,44.57
2023-02-06T10:29:00.774Z,44.18
2023-02-06T10:31:59.727Z,44.85
2023-02-06T10:34:47.423Z,45.32
2023-02-06T10:37:30.629Z,45.43
2023-02-06T10:40:19.673Z,47.31
2023-02-06T10:42:55.625Z,49.05
2023-02-06T10:45:36.330Z,50.24
2023-02-06T10:48:13.295Z,51.37
2023-02-06T10:50:47.615Z,54.43
2023-02-06T10:53:21.441Z,55.65
2023-02-06T10:55:55.672Z,56.00
2023-02-06T10:58:28.118Z,56.61
2023-02-06T11:00:57.434Z,56.98
2023-02-06T11:03:30.420Z,58.40
2023-02-06T11:05:59.400Z,58.49
2023-02-06T11:08:31.718Z,58.77
2023-02-06T11:10:59.664Z,59.35
2023-02-06T11:13:29.685Z,59.57
2023-02-06T11:16:03.249Z,60.76
2023-02-06T11:18:34.223Z,60.49
2023-02-06T11:21:02.758Z,61.32
2023-02-06T11:23:34.607Z,61.39
2023-02-06T11:26:10.883Z,61.01
2023-02-06T11:28:42.382Z,62.46
2023-02-06T11:31:10.904Z,64.51
2023-02-06T11:33:48.547Z,65.30
2023-02-06T11:36:28.729Z,64.88
2023-02-06T11:39:00.365Z,65.25
2023-02-06T11:41:29.298Z,65.61
2023-02-06T11:44:02.497Z,65.52
2023-02-06T11:46:33.168Z,66.28
2023-02-06T11:49:07.218Z,65.37
2023-02-06T11:51:48.960Z,65.58
2023-02-06T11:54:27.969Z,66.19
2023-02-06T11:56:58.121Z,67.46
2023-02-06T11:59:27.366Z,67.76
2023-02-06T12:01:55.812Z,68.17
2023-02-06T12:04:25.865Z,68.40
2023-02-06T12:06:59.107Z,67.74
2023-02-06T12:09:28.761Z,67.43
2023-02-06T12:12:01.541Z,66.80
2023-02-06T12:14:38.067Z,67.80
2023-02-06T12:17:16.367Z,66.93
2023-02-06T12:19:49.621Z,66.05
2023-02-06T12:22:21.848Z,66.51
2023-02-06T12:24:54.617Z,67.36
2023-02-06T12:27:28.676Z,67.37
2023-02-06T12:30:02.727Z,67.16
2023-02-06T12:32:34.120Z,68.50
2023-02-06T12:35:15.905Z,68.79
2023-02-06T12:37:48.833Z,68.82
2023-02-06T12:40:30.612Z,69.11
2023-02-06T12:43:02.511Z,67.88
2023-02-06T12:45:41.181Z,69.01
2023-02-06T12:48:16.957Z,69.18
2023-02-06T12:50:50.083Z,68.01
2023-02-06T12:53:21.116Z,68.17
2023-02-06T12:55:56.403Z,68.12
2023-02-06T12:58:28.991Z,69.28
2023-02-06T13:01:27.852Z,69.58
2023-02-06T13:04:00.150Z,69.26
2023-02-06T13:06:30.875Z,68.86
2023-02-06T13:09:01.869Z,69.10
2023-02-06T13:11:35.463Z,70.02
2023-02-06T13:14:07.124Z,69.36
2023-02-06T13:16:40.154Z,68.39
2023-02-06T13:19:22.002Z,68.61
2023-02-06T13:21:55.237Z,69.01
2023-02-06T13:24:22.809Z,69.94
2023-02-06T13:27:11.748Z,69.96
2023-02-06T13:29:41.530Z,70.20
2023-02-06T13:32:53.636Z,70.56
2023-02-06T13:35:25.697Z,70.53
2023-02-06T13:38:13.389Z,71.57
2023-02-06T13:40:41.085Z,71.56
2023-02-06T13:43:19.456Z,71.46
2023-02-06T13:45:51.842Z,71.65
2023-02-06T13:48:46.918Z,70.93
2023-02-06T13:51:33.465Z,70.45
2023-02-06T13:54:31.589Z,69.46
2023-02-06T13:57:21.059Z,69.33
2023-02-06T13:59:52.936Z,69.75
2023-02-06T14:02:27.702Z,69.41
2023-02-06T14:04:55.569Z,69.82
2023-02-06T14:07:50.657Z,69.20
2023-02-06T14:10:37.339Z,69.08
2023-02-06T14:13:20.506Z,68.44
2023-02-06T14:15:58.754Z,68.05
2023-02-06T14:18:38.617Z,68.47
2023-02-06T14:21:19.341Z,67.27
2023-02-06T14:24:11.650Z,67.56
2023-02-06T14:26:49.292Z,66.51
2023-02-06T14:29:25.838Z,66.36
2023-02-06T14:32:19.024Z,66.33
2023-02-06T14:35:03.554Z,67.20
2023-02-06T14:37:57.136Z,66.70
2023-02-06T14:40:27.165Z,66.65
2023-02-06T14:42:58.454Z,66.33
2023-02-06T14:45:33.812Z,66.50
2023-02-06T14:48:19.304Z,65.96
2023-02-06T14:50:51.243Z,64.98
2023-02-06T14:53:24.176Z,64.38
2023-02-06T14:55:51.802Z,65.16
2023-02-06T14:58:25.681Z,65.18
2023-02-06T15:00:53.754Z,66.10
2023-02-06T15:03:28.321Z,65.54
2023-02-06T15:06:02.080Z,64.07
2023-02-06T15:08:32.535Z,64.20
2023-02-06T15:11:02.303Z,62.85
2023-02-06T15:13:35.136Z,63.17
2023-02-06T15:16:05.317Z,62.83
2023-02-06T15:18:35.776Z,62.62
2023-02-06T15:21:06.287Z,63.47
2023-02-06T15:23:51.029Z,63.77
2023-02-06T15:26:29.035Z,63.20
2023-02-06T15:28:59.218Z,63.51
2023-02-06T15:31:28.487Z,64.85
2023-02-06T15:34:00.116Z,66.87
2023-02-06T15:36:32.156Z,65.47
2023-02-06T15:39:00.942Z,65.40
2023-02-06T15:41:30.946Z,65.89
2023-02-06T15:44:03.308Z,66.06
2023-02-06T15:46:32.000Z,67.75
2023-02-06T15:49:01.345Z,66.26
2023-02-06T15:51:31.458Z,67.39
2023-02-06T15:54:10.945Z,66.02
2023-02-06T15:56:42.665Z,66.05
2023-02-06T15:59:17.560Z,65.84
2023-02-06T16:01:45.219Z,67.71
2023-02-06T16:04:18.750Z,67.01
2023-02-06T16:06:47.577Z,69.77
2023-02-06T16:09:21.696Z,70.46
2023-02-06T16:11:56.144Z,69.14
2023-02-06T16:14:31.467Z,70.55
2023-02-06T16:17:01.973Z,71.38
2023-02-06T16:19:47.970Z,71.53
2023-02-06T16:22:24.789Z,71.44
2023-02-06T16:24:55.275Z,71.90
2023-02-06T16:27:25.523Z,71.43
2023-02-06T16:29:55.487Z,71.09
2023-02-06T16:32:25.730Z,71.98
2023-02-06T16:34:55.534Z,72.77
2023-02-06T16:37:25.029Z,73.19
2023-02-06T16:39:53.593Z,74.17
2023-02-06T16:42:23.111Z,74.60
2023-02-06T16:44:53.372Z,74.21
2023-02-06T16:47:22.867Z,74.18
2023-02-06T16:49:51.843Z,74.63
2023-02-06T16:52:23.805Z,74.62
2023-02-06T16:54:51.882Z,75.34
2023-02-06T16:57:32.805Z,75.86
2023-02-06T17:00:00.636Z,74.71
2023-02-06T17:02:29.227Z,75.41
2023-02-06T17:04:57.846Z,75.41
2023-02-06T17:07:31.762Z,75.14
2023-02-06T17:10:00.684Z,74.53
2023-02-06T17:12:29.243Z,75.51
2023-02-06T17:14:57.079Z,74.96
2023-02-06T17:17:25.130Z,74.83
2023-02-06T17:19:54.203Z,75.87
2023-02-06T17:22:22.084Z,75.52
2023-02-06T17:24:51.289Z,76.25
2023-02-06T17:27:22.489Z,76.23
2023-02-06T17:29:51.205Z,76.38
2023-02-06T17:32:22.097Z,75.64
2023-02-06T17:34:51.070Z,75.98
2023-02-06T17:37:21.488Z,75.79
2023-02-06T17:39:52.611Z,76.27
2023-02-06T17:42:23.136Z,76.74
2023-02-06T17:44:51.724Z,76.26
2023-02-06T17:47:19.352Z,76.32
2023-02-06T17:49:47.634Z,76.51
2023-02-06T17:52:16.023Z,76.64
2023-02-06T17:54:44.345Z,76.04
2023-02-06T17:57:14.230Z,76.53
2023-02-06T17:59:42.038Z,76.58
2023-02-06T18:02:12.429Z,76.51
2023-02-06T18:04:40.486Z,75.99
2023-02-06T18:07:08.602Z,77.70
2023-02-06T18:09:36.297Z,76.84
2023-02-06T18:12:04.855Z,77.23
2023-02-06T18:14:35.283Z,77.98
2023-02-06T18:17:04.031Z,77.42
2023-02-06T18:19:31.765Z,77.85
2023-02-06T18:22:00.159Z,77.84
2023-02-06T18:24:27.780Z,77.46
2023-02-06T18:26:55.345Z,77.79
2023-02-06T18:29:22.934Z,77.78
2023-02-06T18:31:52.316Z,78.02
2023-02-06T18:34:20.555Z,77.85
2023-02-06T18:36:48.244Z,78.30
2023-02-06T18:39:16.201Z,78.66
2023-02-06T18:42:02.153Z,78.65
2023-02-06T18:44:31.312Z,79.53
2023-02-06T18:47:00.738Z,78.83
2023-02-06T18:49:28.412Z,79.73
2023-02-06T18:51:56.751Z,79.53
2023-02-06T18:54:24.328Z,78.47
2023-02-06T18:56:52.266Z,78.74
2023-02-06T18:59:19.876Z,78.75
2023-02-06T19:01:48.177Z,78.86
2023-02-06T19:04:17.136Z,79.56
2023-02-06T19:06:46.046Z,79.46
2023-02-06T19:09:16.121Z,79.98
2023-02-06T19:11:44.916Z,79.90
2023-02-06T19:14:15.867Z,79.56
2023-02-06T19:16:47.230Z,79.78
2023-02-06T19:19:15.161Z,79.82
2023-02-06T19:21:45.047Z,79.61
2023-02-06T19:24:14.537Z,78.80
2023-02-06T19:26:43.193Z,78.96
2023-02-06T19:29:14.788Z,79.63
2023-02-06T19:31:42.776Z,79.83
2023-02-06T19:34:10.853Z,80.09
2023-02-06T19:36:39.320Z,79.46
2023-02-06T19:39:10.279Z,79.91
2023-02-06T19:41:38.741Z,79.36
2023-02-06T19:44:08.928Z,79.57
2023-02-06T19:46:37.346Z,80.00
2023-02-06T19:49:08.481Z,80.11
2023-02-06T19:51:38.507Z,80.12
2023-02-06T19:54:08.220Z,80.32
2023-02-06T19:56:39.662Z,79.39
2023-02-06T19:59:17.785Z,80.01
2023-02-06T20:01:46.579Z,79.84
2023-02-06T20:04:14.291Z,80.08
2023-02-06T20:06:43.900Z,80.34
2023-02-06T20:09:15.468Z,80.70
2023-02-06T20:11:43.586Z,80.77
2023-02-06T20:14:13.022Z,80.75
2023-02-06T20:16:42.618Z,81.17
2023-02-06T20:19:14.096Z,79.93
2023-02-06T20:21:43.574Z,80.35
2023-02-06T20:24:14.627Z,80.03
2023-02-06T20:26:43.981Z,80.08
2023-02-06T20:29:19.923Z,79.72
2023-02-06T20:31:47.696Z,80.45
2023-02-06T20:34:15.501Z,80.30
2023-02-06T20:36:44.412Z,80.36
2023-02-06T20:39:14.457Z,80.40
2023-02-06T20:41:42.411Z,80.69
2023-02-06T20:44:12.263Z,80.92
2023-02-06T20:46:40.570Z,80.27
2023-02-06T20:49:13.447Z,80.64
2023-02-06T20:51:41.076Z,80.58
2023-02-06T20:54:08.790Z,81.49
2023-02-06T20:56:38.157Z,81.08
2023-02-06T20:59:06.321Z,81.63
2023-02-06T21:01:34.694Z,81.44
2023-02-06T21:04:04.436Z,81.95
2023-02-06T21:06:33.997Z,81.64
2023-02-06T21:09:03.071Z,81.59
2023-02-06T21:11:34.428Z,81.26
2023-02-06T21:14:06.124Z,81.80
2023-02-06T21:16:35.343Z,82.15
2023-02-06T21:19:05.905Z,81.30
2023-02-06T21:21:33.852Z,81.52
2023-02-06T21:24:01.508Z,81.32
2023-02-06T21:26:30.787Z,81.83
2023-02-06T21:28:59.756Z,82.18
2023-02-06T21:31:36.047Z,81.77
2023-02-06T21:34:08.935Z,82.62
2023-02-06T21:36:38.258Z,82.67
2023-02-06T21:39:07.045Z,83.07
2023-02-06T21:41:34.846Z,83.11
2023-02-06T21:44:02.615Z,83.55
2023-02-06T21:46:31.775Z,83.43
2023-02-06T21:49:00.029Z,83.49
2023-02-06T21:51:28.032Z,83.25
2023-02-06T21:53:56.444Z,83.25
2023-02-06T21:56:26.044Z,82.47
2023-02-06T21:58:53.894Z,83.11
2023-02-06T22:01:23.383Z,83.13
2023-02-06T22:03:52.702Z,82.56
2023-02-06T22:06:21.131Z,82.71
2023-02-06T22:08:51.699Z,82.40
2023-02-06T22:11:21.831Z,81.63
2023-02-06T22:13:50.081Z,81.67
2023-02-06T22:16:22.769Z,81.53
2023-02-06T22:18:52.365Z,81.23
2023-02-06T22:21:21.562Z,80.92
2023-02-06T22:23:50.529Z,80.26
2023-02-06T22:26:20.615Z,79.99
2023-02-06T22:28:48.899Z,80.24
2023-02-06T22:31:18.672Z,78.91
2023-02-06T22:33:47.121Z,78.06
2023-02-06T22:36:17.707Z,77.37
2023-02-06T22:38:47.189Z,76.70
2023-02-06T22:41:17.479Z,76.37
2023-02-06T22:43:46.949Z,76.01
2023-02-06T22:46:19.477Z,76.04
2023-02-06T22:48:47.706Z,76.15
2023-02-06T22:51:17.527Z,76.07
2023-02-06T22:53:46.285Z,76.03
2023-02-06T22:56:36.720Z,76.69
2023-02-06T22:59:06.917Z,76.35
2023-02-06T23:01:37.021Z,77.14
2023-02-06T23:04:07.128Z,77.22
2023-02-06T23:06:36.892Z,77.36
2023-02-06T23:09:06.555Z,77.32
2023-02-06T23:11:35.028Z,78.06
2023-02-06T23:14:04.590Z,78.31
2023-02-06T23:16:33.976Z,78.77
2023-02-06T23:19:04.469Z,78.26
2023-02-06T23:21:33.509Z,78.26
2023-02-06T23:24:03.101Z,78.05
2023-02-06T23:26:31.276Z,78.59
2023-02-06T23:28:59.980Z,78.93
2023-02-06T23:31:28.212Z,78.65
2023-02-06T23:33:56.989Z,78.43
2023-02-06T23:36:26.708Z,78.97
2023-02-06T23:38:55.461Z,78.83
2023-02-06T23:41:26.954Z,78.94
2023-02-06T23:43:56.345Z,79.13
2023-02-06T23:46:24.708Z,79.45
2023-02-06T23:48:53.167Z,79.62
2023-02-06T23:51:21.626Z,79.52
2023-02-06T23:53:50.552Z,79.21
2023-02-06T23:56:23.291Z,79.29
2023-02-06T23:58:54.069Z,79.25
